createdAt,value
2022-08-05T00:01:36.499Z,99148.63
2022-08-05T00:04:17.985Z,99144.78
2022-08-05T00:06:45.367Z,99145.94
2022-08-05T00:09:15.905Z,99146.34
2022-08-05T00:11:48.691Z,99140.19
2022-08-05T00:14:22.220Z,99142.09
2022-08-05T00:16:54.757Z,99144.00
2022-08-05T00:19:23.310Z,99138.28
2022-08-05T00:21:52.122Z,99132.53
2022-08-05T00:24:24.589Z,99131.38
2022-08-05T00:26:58.632Z,99141.34
2022-08-05T00:29:27.489Z,99137.13
2022-08-05T00:32:12.809Z,99130.59
2022-08-05T00:35:03.982Z,99119.88
2022-08-05T00:37:35.714Z,99122.97
2022-08-05T00:40:27.173Z,99116.84
2022-08-05T00:43:00.674Z,99122.19
2022-08-05T00:45:38.987Z,99118.34
2022-08-05T00:48:11.914Z,99115.28
2022-08-05T00:50:42.015Z,99116.84
2022-08-05T00:53:44.954Z,99118.34
2022-08-05T00:55:58.168Z,99108.00
2022-08-05T00:58:27.510Z,99108.00
2022-08-05T01:00:54.988Z,99109.16
2022-08-05T01:03:23.324Z,99108.38
2022-08-05T01:05:51.477Z,99103.78
2022-08-05T01:08:40.996Z,99096.50
2022-08-05T01:11:13.623Z,99097.66
2022-08-05T01:14:11.286Z,99095.38
2022-08-05T01:16:54.772Z,99093.06
2022-08-05T01:19:56.402Z,99098.81
2022-08-05T01:22:27.907Z,99095.72
2022-08-05T01:25:40.999Z,99093.81
2022-08-05T01:28:08.827Z,99092.25
2022-08-05T01:30:39.966Z,99091.06
2022-08-05T01:33:21.793Z,99094.91
2022-08-05T01:35:57.444Z,99096.84
2022-08-05T01:38:27.156Z,99096.44
2022-08-05T01:40:57.602Z,99093.75
2022-08-05T01:43:26.598Z,99087.63
2022-08-05T01:45:56.157Z,99090.66
2022-08-05T01:48:26.130Z,99084.53
2022-08-05T01:50:56.343Z,99083.78
2022-08-05T01:53:57.433Z,99082.66
2022-08-05T01:58:12.660Z,99089.13
2022-08-05T01:59:06.599Z,99085.31
2022-08-05T02:01:39.755Z,99084.53
2022-08-05T02:04:10.342Z,99089.53
2022-08-05T02:06:38.936Z,99085.31
2022-08-05T02:09:07.403Z,99084.16
2022-08-05T02:11:48.148Z,99084.50
2022-08-05T02:14:29.080Z,99081.03
2022-08-05T02:17:08.023Z,99069.59
2022-08-05T02:19:51.165Z,99075.69
2022-08-05T02:22:27.486Z,99066.13
2022-08-05T02:25:09.456Z,99073.75
2022-08-05T02:27:59.905Z,99081.03
2022-08-05T02:30:34.424Z,99071.44
2022-08-05T02:33:03.083Z,99076.03
2022-08-05T02:35:38.604Z,99083.28
2022-08-05T02:38:19.525Z,99070.66
2022-08-05T02:40:47.544Z,99069.50
2022-08-05T02:43:16.808Z,99072.13
2022-08-05T02:45:51.951Z,99072.91
2022-08-05T02:48:29.488Z,99070.63
2022-08-05T02:51:01.474Z,99066.78
2022-08-05T02:53:39.628Z,99062.13
2022-08-05T02:56:09.437Z,99061.81
2022-08-05T02:58:43.793Z,99064.44
2022-08-05T03:01:17.126Z,99066.72
2022-08-05T03:04:03.383Z,99065.53
2022-08-05T03:06:53.879Z,99069.00
2022-08-05T03:09:36.463Z,99060.97
2022-08-05T03:12:06.501Z,99056.00
2022-08-05T03:14:35.022Z,99060.97
2022-08-05T03:17:12.836Z,99063.94
2022-08-05T03:19:39.574Z,99055.16
2022-08-05T03:22:16.723Z,99052.88
2022-08-05T03:24:47.215Z,99054.75
2022-08-05T03:27:18.784Z,99054.00
2022-08-05T03:30:08.111Z,99050.94
2022-08-05T03:32:32.704Z,99056.28
2022-08-05T03:35:00.074Z,99052.03
2022-08-05T03:37:27.947Z,99048.22
2022-08-05T03:40:01.301Z,99054.28
2022-08-05T03:42:32.177Z,99058.16
2022-08-05T03:44:59.576Z,99058.47
2022-08-05T03:47:30.449Z,99066.16
2022-08-05T03:50:02.155Z,99068.03
2022-08-05T03:52:37.937Z,99068.44
2022-08-05T03:56:05.325Z,99065.69
2022-08-05T03:58:17.997Z,99070.28
2022-08-05T04:00:51.694Z,99069.16
2022-08-05T04:03:28.864Z,99068.31
2022-08-05T04:05:58.068Z,99069.47
2022-08-05T04:08:35.141Z,99068.72
2022-08-05T04:11:06.890Z,99063.78
2022-08-05T04:13:50.831Z,99067.19
2022-08-05T04:16:25.254Z,99064.56
2022-08-05T04:18:57.875Z,99071.75
2022-08-05T04:22:08.672Z,99065.63
2022-08-05T04:24:18.747Z,99065.69
2022-08-05T04:26:48.376Z,99064.19
2022-08-05T04:29:15.276Z,99059.97
2022-08-05T04:31:42.893Z,99062.63
2022-08-05T04:34:31.450Z,99061.53
2022-08-05T04:36:56.766Z,99062.31
2022-08-05T04:39:24.125Z,99064.25
2022-08-05T04:41:54.181Z,99068.06
2022-08-05T04:44:29.347Z,99068.47
2022-08-05T04:46:59.002Z,99065.03
2022-08-05T04:49:38.952Z,99069.66
2022-08-05T04:52:14.656Z,99071.59
2022-08-05T04:54:42.114Z,99071.19
2022-08-05T04:57:08.940Z,99058.22
2022-08-05T04:59:40.597Z,99063.94
2022-08-05T05:02:37.020Z,99059.00
2022-08-05T05:05:02.840Z,99063.22
2022-08-05T05:07:32.870Z,99060.56
2022-08-05T05:10:03.088Z,99058.28
2022-08-05T05:12:29.970Z,99054.06
2022-08-05T05:14:56.820Z,99050.28
2022-08-05T05:17:55.887Z,99056.81
2022-08-05T05:20:12.496Z,99056.47
2022-08-05T05:22:40.915Z,99060.31
2022-08-05T05:25:17.022Z,99053.84
2022-08-05T05:27:53.456Z,99059.97
2022-08-05T05:30:29.485Z,99060.75
2022-08-05T05:33:00.613Z,99060.00
2022-08-05T05:35:37.801Z,99056.19
2022-08-05T05:38:05.759Z,99062.72
2022-08-05T05:40:36.679Z,99065.78
2022-08-05T05:43:03.642Z,99064.25
2022-08-05T05:45:30.494Z,99057.38
2022-08-05T05:48:05.321Z,99055.47
2022-08-05T05:50:35.278Z,99060.47
2022-08-05T05:53:20.811Z,99057.44
2022-08-05T05:55:52.281Z,99062.03
2022-08-05T05:58:30.228Z,99060.88
2022-08-05T06:01:13.064Z,99062.78
2022-08-05T06:04:01.052Z,99069.31
2022-08-05T06:06:31.134Z,99069.66
2022-08-05T06:09:00.364Z,99066.22
2022-08-05T06:11:29.097Z,99071.19
2022-08-05T06:13:56.820Z,99064.66
2022-08-05T06:16:29.146Z,99067.72
2022-08-05T06:19:00.990Z,99070.41
2022-08-05T06:21:35.908Z,99065.78
2022-08-05T06:24:11.969Z,99068.03
2022-08-05T06:26:52.341Z,99066.47
2022-08-05T06:29:43.034Z,99072.56
2022-08-05T06:32:25.531Z,99079.41
2022-08-05T06:34:56.419Z,99080.13
2022-08-05T06:37:58.075Z,99085.47
2022-08-05T06:40:12.756Z,99088.47
2022-08-05T06:42:40.886Z,99082.25
2022-08-05T06:45:09.342Z,99087.16
2022-08-05T06:48:47.408Z,99087.47
2022-08-05T06:50:24.105Z,99074.69
2022-08-05T06:53:03.924Z,99071.59
2022-08-05T06:55:37.945Z,99075.34
2022-08-05T06:58:29.782Z,99074.84
2022-08-05T07:01:00.877Z,99079.34
2022-08-05T07:03:32.540Z,99075.00
2022-08-05T07:06:06.033Z,99080.31
2022-08-05T07:08:47.637Z,99073.66
2022-08-05T07:11:22.370Z,99076.22
2022-08-05T07:13:57.839Z,99077.25
2022-08-05T07:18:00.995Z,99074.88
2022-08-05T07:19:44.301Z,99084.34
2022-08-05T07:22:06.644Z,99073.41
2022-08-05T07:24:35.182Z,99072.28
2022-08-05T07:27:10.974Z,99070.53
2022-08-05T07:30:27.529Z,99072.00
2022-08-05T07:32:26.368Z,99071.91
2022-08-05T07:34:57.943Z,99070.50
2022-08-05T07:37:36.013Z,99072.91
2022-08-05T07:40:31.483Z,99077.84
2022-08-05T07:42:54.787Z,99067.97
2022-08-05T07:45:56.825Z,99070.13
2022-08-05T07:48:08.587Z,99066.47
2022-08-05T07:50:35.490Z,99069.44
2022-08-05T07:53:03.791Z,99065.22
2022-08-05T07:55:44.372Z,99068.03
2022-08-05T07:58:57.625Z,99071.69
2022-08-05T08:01:06.196Z,99065.75
2022-08-05T08:03:44.261Z,99067.44
2022-08-05T08:06:11.829Z,99077.34
2022-08-05T08:08:38.660Z,99075.97
2022-08-05T08:11:08.745Z,99074.84
2022-08-05T08:13:49.414Z,99074.13
2022-08-05T08:16:35.232Z,99069.38
2022-08-05T08:19:09.584Z,99073.41
2022-08-05T08:21:56.432Z,99078.16
2022-08-05T08:24:45.952Z,99066.44
2022-08-05T08:27:11.143Z,99072.91
2022-08-05T08:30:06.485Z,99064.63
2022-08-05T08:32:30.225Z,99068.19
2022-08-05T08:34:59.366Z,99064.03
2022-08-05T08:37:28.154Z,99063.06
2022-08-05T08:39:55.118Z,99064.84
2022-08-05T08:42:34.096Z,99064.00
2022-08-05T08:45:24.221Z,99060.97
2022-08-05T08:48:10.568Z,99060.28
2022-08-05T08:51:03.296Z,99054.97
2022-08-05T08:53:36.985Z,99055.31
2022-08-05T08:56:06.176Z,99044.63
2022-08-05T08:58:43.155Z,99054.94
2022-08-05T09:01:16.413Z,99052.66
2022-08-05T09:03:47.429Z,99051.03
2022-08-05T09:06:18.664Z,99051.41
2022-08-05T09:08:48.140Z,99052.75
2022-08-05T09:11:15.253Z,99051.19
2022-08-05T09:14:10.153Z,99053.47
2022-08-05T09:16:30.531Z,99052.19
2022-08-05T09:18:59.522Z,99058.94
2022-08-05T09:22:17.544Z,99053.22
2022-08-05T09:24:13.354Z,99053.97
2022-08-05T09:26:47.224Z,99051.28
2022-08-05T09:29:19.048Z,99053.56
2022-08-05T09:32:40.694Z,99049.47
2022-08-05T09:34:54.985Z,99046.88
2022-08-05T09:38:16.959Z,99042.84
2022-08-05T09:40:36.099Z,99040.34
2022-08-05T09:43:04.497Z,99044.34
2022-08-05T09:46:06.696Z,99045.88
2022-08-05T09:48:31.311Z,99041.88
2022-08-05T09:51:03.149Z,99035.88
2022-08-05T09:53:54.489Z,99041.09
2022-08-05T09:56:31.828Z,99036.75
2022-08-05T09:59:04.209Z,99036.63
2022-08-05T10:01:33.012Z,99037.03
2022-08-05T10:04:01.642Z,99031.50
2022-08-05T10:06:31.602Z,99040.81
2022-08-05T10:09:25.092Z,99040.28
2022-08-05T10:11:55.406Z,99034.84
2022-08-05T10:14:28.512Z,99023.25
2022-08-05T10:17:38.006Z,99021.69
2022-08-05T10:20:10.808Z,99024.63
2022-08-05T10:22:42.902Z,99025.25
2022-08-05T10:25:15.948Z,99024.38
2022-08-05T10:28:13.662Z,99027.94
2022-08-05T10:32:46.715Z,99024.09
2022-08-05T10:33:17.486Z,99022.31
2022-08-05T10:35:49.648Z,99022.63
2022-08-05T10:38:28.684Z,99015.56
2022-08-05T10:41:46.874Z,99011.41
2022-08-05T10:44:18.466Z,99010.91
2022-08-05T10:46:54.432Z,99008.88
2022-08-05T10:49:26.901Z,99003.28
2022-08-05T10:52:00.201Z,99007.81
2022-08-05T10:55:02.033Z,99002.88
2022-08-05T10:57:32.326Z,99003.19
2022-08-05T11:00:20.516Z,99001.09
2022-08-05T11:03:25.532Z,98999.78
2022-08-05T11:06:04.996Z,98995.44
2022-08-05T11:08:37.092Z,98997.72
2022-08-05T11:11:44.882Z,98994.84
2022-08-05T11:15:00.860Z,98992.25
2022-08-05T11:17:58.651Z,98989.81
2022-08-05T11:20:32.527Z,98993.16
2022-08-05T11:23:05.906Z,98987.47
2022-08-05T11:26:05.144Z,98981.78
2022-08-05T11:28:26.956Z,98982.75
2022-08-05T11:30:58.456Z,98980.94
2022-08-05T11:33:48.093Z,98985.63
2022-08-05T11:36:34.376Z,98982.75
2022-08-05T11:39:08.503Z,98983.66
2022-08-05T11:42:00.797Z,98976.88
2022-08-05T11:44:41.258Z,98979.09
2022-08-05T11:47:15.200Z,98972.81
2022-08-05T11:49:49.796Z,98977.63
2022-08-05T11:52:29.726Z,98974.88
2022-08-05T11:54:58.764Z,98984.88
2022-08-05T11:58:08.165Z,98987.00
2022-08-05T12:00:31.384Z,98977.94
2022-08-05T12:02:58.486Z,98972.91
2022-08-05T12:05:36.376Z,98974.28
2022-08-05T12:08:11.754Z,98972.75
2022-08-05T12:10:46.628Z,98973.53
2022-08-05T12:13:27.987Z,98976.38
2022-08-05T12:16:14.508Z,98977.59
2022-08-05T12:18:42.637Z,98967.66
2022-08-05T12:21:20.210Z,98978.97
2022-08-05T12:24:07.096Z,98976.16
2022-08-05T12:27:00.099Z,98980.09
2022-08-05T12:29:37.933Z,98974.13
2022-08-05T12:32:07.637Z,98973.75
2022-08-05T12:34:38.103Z,98970.97
2022-08-05T12:37:09.843Z,98977.25
2022-08-05T12:39:41.152Z,98971.16
2022-08-05T12:42:14.862Z,98960.19
2022-08-05T12:44:43.229Z,98965.53
2022-08-05T12:47:12.436Z,98963.66
2022-08-05T12:50:02.346Z,98965.06
2022-08-05T12:52:39.646Z,98963.31
2022-08-05T12:55:25.630Z,98963.66
2022-08-05T12:58:48.827Z,98964.91
2022-08-05T13:02:00.257Z,98962.25
2022-08-05T13:03:31.985Z,98956.22
2022-08-05T13:06:00.145Z,98954.94
2022-08-05T13:08:32.225Z,98967.63
2022-08-05T13:11:02.402Z,98962.22
2022-08-05T13:14:06.466Z,98963.88
2022-08-05T13:16:25.280Z,98961.06
2022-08-05T13:18:58.536Z,98950.25
2022-08-05T13:21:27.782Z,98944.78
2022-08-05T13:23:55.718Z,98948.84
2022-08-05T13:26:29.792Z,98951.63
2022-08-05T13:28:59.173Z,98955.13
2022-08-05T13:31:33.796Z,98945.19
2022-08-05T13:34:23.086Z,98942.09
2022-08-05T13:36:55.497Z,98943.50
2022-08-05T13:40:13.613Z,98936.09
2022-08-05T13:42:13.965Z,98936.25
2022-08-05T13:44:45.359Z,98938.31
2022-08-05T13:47:34.831Z,98930.97
2022-08-05T13:50:04.087Z,98927.75
2022-08-05T13:52:35.420Z,98926.06
2022-08-05T13:55:07.627Z,98916.88
2022-08-05T13:57:51.050Z,98921.44
2022-08-05T14:00:26.993Z,98908.97
2022-08-05T14:03:01.059Z,98910.88
2022-08-05T14:05:48.483Z,98906.53
2022-08-05T14:08:21.385Z,98908.97
2022-08-05T14:11:03.104Z,98899.00
2022-08-05T14:13:42.235Z,98891.38
2022-08-05T14:16:11.559Z,98889.28
2022-08-05T14:18:38.565Z,98889.94
2022-08-05T14:22:07.065Z,98885.91
2022-08-05T14:23:52.388Z,98888.16
2022-08-05T14:26:38.420Z,98883.63
2022-08-05T14:29:16.180Z,98875.44
2022-08-05T14:32:02.749Z,98879.59
2022-08-05T14:34:35.404Z,98882.41
2022-08-05T14:37:03.813Z,98883.06
2022-08-05T14:39:50.271Z,98879.09
2022-08-05T14:42:20.796Z,98876.75
2022-08-05T14:44:49.096Z,98872.03
2022-08-05T14:47:15.932Z,98879.41
2022-08-05T14:49:59.410Z,98871.94
2022-08-05T14:52:50.362Z,98875.06
2022-08-05T14:55:15.663Z,98868.09
2022-08-05T14:57:54.722Z,98875.50
2022-08-05T15:00:29.537Z,98873.44
2022-08-05T15:02:56.623Z,98870.34
2022-08-05T15:05:30.118Z,98881.09
2022-08-05T15:08:17.839Z,98881.75
2022-08-05T15:10:58.669Z,98886.16
2022-08-05T15:13:44.878Z,98890.81
2022-08-05T15:16:13.193Z,98891.38
2022-08-05T15:18:40.091Z,98881.47
2022-08-05T15:21:08.363Z,98889.56
2022-08-05T15:23:35.100Z,98881.13
2022-08-05T15:26:05.024Z,98872.59
2022-08-05T15:28:33.970Z,98871.88
2022-08-05T15:31:00.751Z,98876.66
2022-08-05T15:34:05.145Z,98864.00
2022-08-05T15:36:24.159Z,98871.31
2022-08-05T15:41:00.728Z,98877.41
2022-08-05T15:41:56.338Z,98873.28
2022-08-05T15:44:26.204Z,98865.47
2022-08-05T15:46:55.787Z,98866.13
2022-08-05T15:49:40.746Z,98867.53
2022-08-05T15:52:16.269Z,98859.03
2022-08-05T15:54:44.337Z,98867.34
2022-08-05T15:57:11.229Z,98858.28
2022-08-05T15:59:39.085Z,98858.75
2022-08-05T16:02:09.596Z,98867.69
2022-08-05T16:04:42.548Z,98867.94
2022-08-05T16:07:10.670Z,98872.72
2022-08-05T16:09:41.812Z,98874.03
2022-08-05T16:12:09.093Z,98872.34
2022-08-05T16:14:36.941Z,98873.22
2022-08-05T16:17:04.039Z,98869.75
2022-08-05T16:20:04.987Z,98874.63
2022-08-05T16:22:17.750Z,98869.81
2022-08-05T16:24:52.282Z,98873.09
2022-08-05T16:27:19.572Z,98878.47
2022-08-05T16:30:07.823Z,98878.66
2022-08-05T16:32:50.376Z,98881.75
2022-08-05T16:35:17.291Z,98882.38
2022-08-05T16:38:03.707Z,98883.59
2022-08-05T16:40:33.080Z,98880.88
2022-08-05T16:42:59.927Z,98880.00
2022-08-05T16:46:06.745Z,98882.28
2022-08-05T16:48:25.161Z,98879.25
2022-08-05T16:50:53.670Z,98881.41
2022-08-05T16:53:22.359Z,98881.09
2022-08-05T16:55:50.209Z,98877.34
2022-08-05T16:58:19.641Z,98871.56
2022-08-05T17:00:48.192Z,98870.69
2022-08-05T17:03:20.339Z,98868.88
2022-08-05T17:05:53.579Z,98871.50
2022-08-05T17:08:33.439Z,98872.44
2022-08-05T17:11:12.787Z,98875.34
2022-08-05T17:13:45.252Z,98867.81
2022-08-05T17:16:29.880Z,98869.16
2022-08-05T17:18:59.213Z,98862.97
2022-08-05T17:21:26.142Z,98864.19
2022-08-05T17:24:30.167Z,98867.84
2022-08-05T17:26:58.174Z,98866.78
2022-08-05T17:29:34.063Z,98864.53
2022-08-05T17:32:11.676Z,98878.66
2022-08-05T17:34:43.721Z,98871.88
2022-08-05T17:37:29.483Z,98876.16
2022-08-05T17:39:59.836Z,98879.97
2022-08-05T17:42:31.854Z,98882.53
2022-08-05T17:44:59.229Z,98889.22
2022-08-05T17:47:27.259Z,98895.16
2022-08-05T17:50:04.016Z,98894.84
2022-08-05T17:52:32.605Z,98906.50
2022-08-05T17:55:00.516Z,98896.50
2022-08-05T17:57:28.514Z,98905.13
2022-08-05T18:00:03.665Z,98904.88
2022-08-05T18:02:34.080Z,98905.75
2022-08-05T18:05:01.892Z,98908.94
2022-08-05T18:07:32.767Z,98912.25
2022-08-05T18:10:10.436Z,98917.53
2022-08-05T18:12:37.691Z,98916.78
2022-08-05T18:15:05.668Z,98919.19
2022-08-05T18:18:00.239Z,98918.59
2022-08-05T18:20:29.336Z,98920.44
2022-08-05T18:23:11.965Z,98925.88
2022-08-05T18:25:45.369Z,98930.88
2022-08-05T18:28:16.253Z,98932.84
2022-08-05T18:30:45.356Z,98933.16
2022-08-05T18:33:13.764Z,98930.84
2022-08-05T18:36:01.197Z,98931.75
2022-08-05T18:38:28.797Z,98932.16
2022-08-05T18:41:54.127Z,98933.69
2022-08-05T18:43:42.921Z,98938.50
2022-08-05T18:46:15.853Z,98935.63
2022-08-05T18:48:51.981Z,98930.59
2022-08-05T18:52:04.278Z,98928.78
2022-08-05T18:54:08.872Z,98936.28
2022-08-05T18:56:35.968Z,98939.00
2022-08-05T18:59:41.892Z,98935.81
2022-08-05T19:01:57.024Z,98944.38
2022-08-05T19:04:25.972Z,98947.31
2022-08-05T19:06:53.589Z,98956.19
2022-08-05T19:09:21.298Z,98950.63
2022-08-05T19:12:00.075Z,98951.06
2022-08-05T19:14:37.864Z,98948.34
2022-08-05T19:17:17.382Z,98940.06
2022-08-05T19:19:47.082Z,98947.13
2022-08-05T19:22:17.039Z,98955.25
2022-08-05T19:24:54.139Z,98955.66
2022-08-05T19:27:27.745Z,98956.25
2022-08-05T19:29:58.127Z,98964.19
2022-08-05T19:32:26.268Z,98964.13
2022-08-05T19:34:55.889Z,98965.16
2022-08-05T19:37:35.105Z,98968.72
2022-08-05T19:40:12.355Z,98970.06
2022-08-05T19:43:00.889Z,98968.75
2022-08-05T19:45:30.515Z,98963.56
2022-08-05T19:48:04.320Z,98957.19
2022-08-05T19:50:32.489Z,98970.66
2022-08-05T19:53:09.495Z,98972.97
2022-08-05T19:56:14.201Z,98967.78
2022-08-05T19:58:28.504Z,98968.75
2022-08-05T20:00:57.796Z,98969.81
2022-08-05T20:03:26.263Z,98964.06
2022-08-05T20:05:53.603Z,98963.78
2022-08-05T20:08:24.595Z,98958.66
2022-08-05T20:10:52.424Z,98964.28
2022-08-05T20:13:30.349Z,98968.63
2022-08-05T20:16:07.791Z,98960.38
2022-08-05T20:18:36.903Z,98966.66
2022-08-05T20:21:06.767Z,98967.22
2022-08-05T20:23:40.409Z,98971.19
2022-08-05T20:26:19.849Z,98967.25
2022-08-05T20:28:51.215Z,98965.00
2022-08-05T20:31:36.740Z,98969.75
2022-08-05T20:34:05.064Z,98976.97
2022-08-05T20:36:31.967Z,98974.72
2022-08-05T20:38:59.611Z,98982.03
2022-08-05T20:41:43.904Z,98983.13
2022-08-05T20:44:18.694Z,98972.41
2022-08-05T20:46:57.012Z,98979.31
2022-08-05T20:49:26.046Z,98978.97
2022-08-05T20:51:54.365Z,98980.09
2022-08-05T20:54:25.623Z,98973.94
2022-08-05T20:57:10.852Z,98978.84
2022-08-05T20:59:46.305Z,98983.53
2022-08-05T21:02:29.203Z,98983.03
2022-08-05T21:04:55.998Z,98982.44
2022-08-05T21:07:24.212Z,98977.78
2022-08-05T21:09:53.770Z,98974.25
2022-08-05T21:12:21.284Z,98976.09
2022-08-05T21:14:48.004Z,98981.09
2022-08-05T21:17:15.610Z,98976.78
2022-08-05T21:19:47.268Z,98977.13
2022-08-05T21:22:18.666Z,98976.59
2022-08-05T21:24:51.375Z,98969.22
2022-08-05T21:27:24.962Z,98982.53
2022-08-05T21:29:52.647Z,98972.97
2022-08-05T21:32:27.242Z,98974.81
2022-08-05T21:35:17.849Z,98973.97
2022-08-05T21:37:47.269Z,98983.19
2022-08-05T21:40:21.033Z,98985.91
2022-08-05T21:42:48.083Z,98990.63
2022-08-05T21:45:24.669Z,98991.81
2022-08-05T21:47:56.172Z,98993.94
2022-08-05T21:50:26.515Z,98996.16
2022-08-05T21:52:58.556Z,98998.94
2022-08-05T21:55:43.140Z,99000.63
2022-08-05T21:58:13.223Z,99009.16
2022-08-05T22:00:40.329Z,99003.72
2022-08-05T22:03:09.954Z,99016.41
2022-08-05T22:05:49.061Z,99017.88
2022-08-05T22:08:22.185Z,99025.19
2022-08-05T22:10:51.887Z,99019.78
2022-08-05T22:14:05.760Z,99023.28
2022-08-05T22:16:32.166Z,99027.91
2022-08-05T22:18:54.580Z,99025.19
2022-08-05T22:21:25.660Z,99020.22
2022-08-05T22:24:02.814Z,99020.31
2022-08-05T22:26:35.723Z,99016.41
2022-08-05T22:29:03.987Z,99021.91
2022-08-05T22:31:30.988Z,99014.63
2022-08-05T22:34:11.457Z,99031.72
2022-08-05T22:36:48.203Z,99041.34
2022-08-05T22:39:15.186Z,99044.16
2022-08-05T22:42:09.898Z,99043.03
2022-08-05T22:44:29.539Z,99049.19
2022-08-05T22:46:56.530Z,99049.63
2022-08-05T22:50:19.055Z,99053.09
2022-08-05T22:52:15.391Z,99056.59
2022-08-05T22:54:50.218Z,99061.78
2022-08-05T22:57:17.041Z,99060.66
2022-08-05T22:59:53.788Z,99069.19
2022-08-05T23:02:28.988Z,99071.88
2022-08-05T23:04:58.354Z,99076.22
2022-08-05T23:07:30.333Z,99077.63
2022-08-05T23:10:01.420Z,99089.66
2022-08-05T23:12:32.663Z,99080.34
2022-08-05T23:15:09.112Z,99085.00
2022-08-05T23:17:59.720Z,99090.47
2022-08-05T23:20:24.443Z,99080.94
2022-08-05T23:22:56.032Z,99082.53
2022-08-05T23:25:51.725Z,99086.75
2022-08-05T23:28:12.202Z,99080.84
2022-08-05T23:30:39.683Z,99081.53
2022-08-05T23:33:22.037Z,99078.41
2022-08-05T23:35:55.815Z,99076.44
2022-08-05T23:38:24.508Z,99086.59
2022-08-05T23:40:52.828Z,99085.47
2022-08-05T23:43:25.369Z,99079.38
2022-08-05T23:46:20.852Z,99072.19
2022-08-05T23:49:00.326Z,99077.75
2022-08-05T23:51:33.291Z,99067.94
2022-08-05T23:54:01.463Z,99064.66
2022-08-05T23:56:28.992Z,99060.22
2022-08-05T23:58:58.686Z,99055.00
